sensor_id;sensor_type;location;lat;lon;timestamp;P1;durP1;ratioP1;P2;durP2;ratioP2
39370;SDS011;25099;51.946;4.838;2022-11-12T00:02:12;15.60;;;11.93;;
39370;SDS011;25099;51.946;4.838;2022-11-12T00:04:37;16.30;;;10.75;;
39370;SDS011;25099;51.946;4.838;2022-11-12T00:07:03;17.45;;;12.93;;
39370;SDS011;25099;51.946;4.838;2022-11-12T00:09:28;14.82;;;10.75;;
39370;SDS011;25099;51.946;4.838;2022-11-12T00:11:54;15.57;;;11.98;;
39370;SDS011;25099;51.946;4.838;2022-11-12T00:14:19;13.90;;;10.77;;
39370;SDS011;25099;51.946;4.838;2022-11-12T00:16:45;15.27;;;11.15;;
39370;SDS011;25099;51.946;4.838;2022-11-12T00:19:11;13.40;;;11.25;;
39370;SDS011;25099;51.946;4.838;2022-11-12T00:21:36;18.27;;;11.98;;
39370;SDS011;25099;51.946;4.838;2022-11-12T00:24:02;20.15;;;12.50;;
39370;SDS011;25099;51.946;4.838;2022-11-12T00:26:27;19.05;;;11.32;;
39370;SDS011;25099;51.946;4.838;2022-11-12T00:28:53;15.98;;;11.70;;
39370;SDS011;25099;51.946;4.838;2022-11-12T00:31:19;19.98;;;12.00;;
39370;SDS011;25099;51.946;4.838;2022-11-12T00:33:45;18.60;;;12.63;;
39370;SDS011;25099;51.946;4.838;2022-11-12T00:36:10;18.30;;;12.05;;
39370;SDS011;25099;51.946;4.838;2022-11-12T00:38:36;15.75;;;11.88;;
39370;SDS011;25099;51.946;4.838;2022-11-12T00:41:02;18.25;;;11.65;;
39370;SDS011;25099;51.946;4.838;2022-11-12T00:43:27;21.77;;;12.18;;
39370;SDS011;25099;51.946;4.838;2022-11-12T00:45:53;23.05;;;12.43;;
39370;SDS011;25099;51.946;4.838;2022-11-12T00:48:18;16.95;;;11.60;;
39370;SDS011;25099;51.946;4.838;2022-11-12T00:50:47;17.05;;;11.93;;
39370;SDS011;25099;51.946;4.838;2022-11-12T00:53:12;18.80;;;12.32;;
39370;SDS011;25099;51.946;4.838;2022-11-12T00:55:41;22.60;;;12.48;;
39370;SDS011;25099;51.946;4.838;2022-11-12T00:58:06;18.25;;;13.32;;
39370;SDS011;25099;51.946;4.838;2022-11-12T01:00:32;23.10;;;12.65;;
39370;SDS011;25099;51.946;4.838;2022-11-12T01:02:57;18.17;;;12.73;;
39370;SDS011;25099;51.946;4.838;2022-11-12T01:05:23;19.25;;;13.07;;
39370;SDS011;25099;51.946;4.838;2022-11-12T01:07:48;18.52;;;13.07;;
39370;SDS011;25099;51.946;4.838;2022-11-12T01:10:14;18.02;;;12.35;;
39370;SDS011;25099;51.946;4.838;2022-11-12T01:12:39;29.92;;;14.05;;
39370;SDS011;25099;51.946;4.838;2022-11-12T01:15:05;30.08;;;13.18;;
39370;SDS011;25099;51.946;4.838;2022-11-12T01:17:31;35.47;;;13.43;;
39370;SDS011;25099;51.946;4.838;2022-11-12T01:19:57;26.70;;;12.27;;
39370;SDS011;25099;51.946;4.838;2022-11-12T01:22:23;45.00;;;13.48;;
39370;SDS011;25099;51.946;4.838;2022-11-12T01:24:48;45.90;;;11.85;;
39370;SDS011;25099;51.946;4.838;2022-11-12T01:27:14;24.70;;;10.73;;
39370;SDS011;25099;51.946;4.838;2022-11-12T01:29:40;41.40;;;12.93;;
39370;SDS011;25099;51.946;4.838;2022-11-12T01:32:05;14.98;;;12.23;;
39370;SDS011;25099;51.946;4.838;2022-11-12T01:34:31;14.38;;;11.43;;
39370;SDS011;25099;51.946;4.838;2022-11-12T01:36:57;16.52;;;11.75;;
39370;SDS011;25099;51.946;4.838;2022-11-12T01:39:23;15.88;;;11.85;;
39370;SDS011;25099;51.946;4.838;2022-11-12T01:41:48;16.85;;;12.18;;
39370;SDS011;25099;51.946;4.838;2022-11-12T01:44:15;13.50;;;11.75;;
39370;SDS011;25099;51.946;4.838;2022-11-12T01:55:04;15.43;;;12.25;;
39370;SDS011;25099;51.946;4.838;2022-11-12T01:57:44;15.27;;;11.57;;
39370;SDS011;25099;51.946;4.838;2022-11-12T02:00:14;17.65;;;13.05;;
39370;SDS011;25099;51.946;4.838;2022-11-12T02:02:41;17.92;;;12.75;;
39370;SDS011;25099;51.946;4.838;2022-11-12T02:05:09;16.98;;;12.55;;
39370;SDS011;25099;51.946;4.838;2022-11-12T02:07:35;14.55;;;11.20;;
39370;SDS011;25099;51.946;4.838;2022-11-12T02:10:04;28.67;;;12.35;;
39370;SDS011;25099;51.946;4.838;2022-11-12T02:12:31;17.52;;;11.15;;
39370;SDS011;25099;51.946;4.838;2022-11-12T02:15:16;27.70;;;12.40;;
39370;SDS011;25099;51.946;4.838;2022-11-12T02:17:41;23.55;;;11.20;;
39370;SDS011;25099;51.946;4.838;2022-11-12T02:20:11;39.50;;;12.20;;
39370;SDS011;25099;51.946;4.838;2022-11-12T02:22:37;15.25;;;12.10;;
39370;SDS011;25099;51.946;4.838;2022-11-12T02:25:03;22.38;;;11.65;;
39370;SDS011;25099;51.946;4.838;2022-11-12T02:27:29;21.45;;;11.73;;
39370;SDS011;25099;51.946;4.838;2022-11-12T02:29:55;12.38;;;11.07;;
39370;SDS011;25099;51.946;4.838;2022-11-12T02:32:21;20.08;;;12.13;;
39370;SDS011;25099;51.946;4.838;2022-11-12T02:34:46;13.52;;;11.73;;
39370;SDS011;25099;51.946;4.838;2022-11-12T02:37:18;18.75;;;12.88;;
39370;SDS011;25099;51.946;4.838;2022-11-12T02:39:43;16.38;;;13.15;;
39370;SDS011;25099;51.946;4.838;2022-11-12T02:42:09;21.52;;;12.35;;
39370;SDS011;25099;51.946;4.838;2022-11-12T02:44:36;16.85;;;11.85;;
39370;SDS011;25099;51.946;4.838;2022-11-12T02:47:02;18.92;;;11.75;;
39370;SDS011;25099;51.946;4.838;2022-11-12T02:49:28;23.27;;;13.52;;
39370;SDS011;25099;51.946;4.838;2022-11-12T02:51:53;38.58;;;15.93;;
39370;SDS011;25099;51.946;4.838;2022-11-12T02:54:19;32.50;;;14.43;;
39370;SDS011;25099;51.946;4.838;2022-11-12T02:56:44;25.67;;;13.65;;
39370;SDS011;25099;51.946;4.838;2022-11-12T02:59:10;14.45;;;12.95;;
39370;SDS011;25099;51.946;4.838;2022-11-12T03:01:35;20.98;;;13.77;;
39370;SDS011;25099;51.946;4.838;2022-11-12T03:04:01;21.70;;;15.05;;
39370;SDS011;25099;51.946;4.838;2022-11-12T03:06:26;27.33;;;13.85;;
39370;SDS011;25099;51.946;4.838;2022-11-12T03:08:52;41.17;;;15.70;;
39370;SDS011;25099;51.946;4.838;2022-11-12T03:11:17;29.48;;;15.23;;
39370;SDS011;25099;51.946;4.838;2022-11-12T03:13:43;35.80;;;13.68;;
39370;SDS011;25099;51.946;4.838;2022-11-12T03:16:09;23.23;;;13.93;;
39370;SDS011;25099;51.946;4.838;2022-11-12T03:18:34;25.25;;;14.52;;
39370;SDS011;25099;51.946;4.838;2022-11-12T03:21:01;30.52;;;15.60;;
39370;SDS011;25099;51.946;4.838;2022-11-12T03:23:26;21.33;;;16.08;;
39370;SDS011;25099;51.946;4.838;2022-11-12T03:25:52;43.85;;;15.50;;
39370;SDS011;25099;51.946;4.838;2022-11-12T03:28:18;43.17;;;15.32;;
39370;SDS011;25099;51.946;4.838;2022-11-12T03:30:44;27.95;;;14.20;;
39370;SDS011;25099;51.946;4.838;2022-11-12T03:33:10;25.73;;;14.63;;
39370;SDS011;25099;51.946;4.838;2022-11-12T03:35:37;21.40;;;13.23;;
39370;SDS011;25099;51.946;4.838;2022-11-12T03:38:04;119.25;;;18.13;;
39370;SDS011;25099;51.946;4.838;2022-11-12T03:40:31;57.42;;;15.65;;
39370;SDS011;25099;51.946;4.838;2022-11-12T03:42:57;20.65;;;12.93;;
39370;SDS011;25099;51.946;4.838;2022-11-12T03:45:24;48.08;;;14.70;;
39370;SDS011;25099;51.946;4.838;2022-11-12T03:47:52;19.23;;;13.27;;
39370;SDS011;25099;51.946;4.838;2022-11-12T03:50:20;97.32;;;15.77;;
39370;SDS011;25099;51.946;4.838;2022-11-12T03:52:48;57.30;;;13.77;;
39370;SDS011;25099;51.946;4.838;2022-11-12T03:55:16;49.17;;;13.77;;
39370;SDS011;25099;51.946;4.838;2022-11-12T03:57:43;27.70;;;12.68;;
39370;SDS011;25099;51.946;4.838;2022-11-12T04:00:11;42.33;;;13.05;;
39370;SDS011;25099;51.946;4.838;2022-11-12T04:02:44;36.60;;;13.20;;
39370;SDS011;25099;51.946;4.838;2022-11-12T04:05:09;30.38;;;13.02;;
39370;SDS011;25099;51.946;4.838;2022-11-12T04:10:47;71.90;;;14.82;;
39370;SDS011;25099;51.946;4.838;2022-11-12T04:13:13;36.83;;;13.25;;
39370;SDS011;25099;51.946;4.838;2022-11-12T04:18:39;40.75;;;14.90;;
39370;SDS011;25099;51.946;4.838;2022-11-12T04:21:33;28.17;;;12.82;;
39370;SDS011;25099;51.946;4.838;2022-11-12T04:24:14;21.70;;;13.70;;
39370;SDS011;25099;51.946;4.838;2022-11-12T04:26:59;38.40;;;13.63;;
39370;SDS011;25099;51.946;4.838;2022-11-12T04:29:25;21.25;;;13.23;;
39370;SDS011;25099;51.946;4.838;2022-11-12T04:32:09;30.05;;;13.95;;
39370;SDS011;25099;51.946;4.838;2022-11-12T04:34:34;44.25;;;14.70;;
39370;SDS011;25099;51.946;4.838;2022-11-12T04:37:01;20.75;;;14.68;;
39370;SDS011;25099;51.946;4.838;2022-11-12T04:39:27;25.15;;;14.48;;
39370;SDS011;25099;51.946;4.838;2022-11-12T04:41:53;26.00;;;14.23;;
39370;SDS011;25099;51.946;4.838;2022-11-12T04:44:37;21.00;;;13.55;;
39370;SDS011;25099;51.946;4.838;2022-11-12T04:47:21;17.42;;;14.60;;
39370;SDS011;25099;51.946;4.838;2022-11-12T04:49:46;22.08;;;14.07;;
39370;SDS011;25099;51.946;4.838;2022-11-12T04:52:12;19.65;;;14.88;;
39370;SDS011;25099;51.946;4.838;2022-11-12T04:54:38;22.63;;;15.55;;
39370;SDS011;25099;51.946;4.838;2022-11-12T04:57:03;19.80;;;15.60;;
39370;SDS011;25099;51.946;4.838;2022-11-12T04:59:32;17.77;;;14.95;;
39370;SDS011;25099;51.946;4.838;2022-11-12T05:01:57;23.10;;;15.48;;
39370;SDS011;25099;51.946;4.838;2022-11-12T05:04:23;19.88;;;14.63;;
39370;SDS011;25099;51.946;4.838;2022-11-12T05:06:52;19.98;;;14.80;;
39370;SDS011;25099;51.946;4.838;2022-11-12T05:09:20;22.02;;;14.57;;
39370;SDS011;25099;51.946;4.838;2022-11-12T05:11:50;21.63;;;16.00;;
39370;SDS011;25099;51.946;4.838;2022-11-12T05:14:17;17.63;;;14.82;;
39370;SDS011;25099;51.946;4.838;2022-11-12T05:16:43;19.27;;;15.20;;
39370;SDS011;25099;51.946;4.838;2022-11-12T05:19:09;18.52;;;14.43;;
39370;SDS011;25099;51.946;4.838;2022-11-12T05:21:35;19.35;;;15.43;;
39370;SDS011;25099;51.946;4.838;2022-11-12T05:24:19;22.88;;;15.50;;
39370;SDS011;25099;51.946;4.838;2022-11-12T05:26:45;18.65;;;14.85;;
39370;SDS011;25099;51.946;4.838;2022-11-12T05:29:10;23.75;;;15.95;;
39370;SDS011;25099;51.946;4.838;2022-11-12T05:31:36;16.90;;;14.13;;
39370;SDS011;25099;51.946;4.838;2022-11-12T05:34:02;19.25;;;14.80;;
39370;SDS011;25099;51.946;4.838;2022-11-12T05:36:27;20.13;;;15.23;;
39370;SDS011;25099;51.946;4.838;2022-11-12T05:38:53;25.95;;;18.55;;
39370;SDS011;25099;51.946;4.838;2022-11-12T05:41:18;20.23;;;16.05;;
39370;SDS011;25099;51.946;4.838;2022-11-12T05:43:44;19.67;;;15.82;;
39370;SDS011;25099;51.946;4.838;2022-11-12T05:46:09;24.67;;;16.92;;
39370;SDS011;25099;51.946;4.838;2022-11-12T05:48:35;29.77;;;16.70;;
39370;SDS011;25099;51.946;4.838;2022-11-12T05:51:01;26.52;;;17.77;;
39370;SDS011;25099;51.946;4.838;2022-11-12T05:53:26;24.55;;;17.80;;
39370;SDS011;25099;51.946;4.838;2022-11-12T05:56:03;20.65;;;17.35;;
39370;SDS011;25099;51.946;4.838;2022-11-12T05:58:29;23.77;;;17.95;;
39370;SDS011;25099;51.946;4.838;2022-11-12T06:00:56;24.65;;;17.20;;
39370;SDS011;25099;51.946;4.838;2022-11-12T06:03:22;27.85;;;18.67;;
39370;SDS011;25099;51.946;4.838;2022-11-12T06:05:48;25.83;;;17.48;;
39370;SDS011;25099;51.946;4.838;2022-11-12T06:08:14;24.30;;;18.77;;
39370;SDS011;25099;51.946;4.838;2022-11-12T06:10:39;22.15;;;17.63;;
39370;SDS011;25099;51.946;4.838;2022-11-12T06:13:05;27.75;;;17.48;;
39370;SDS011;25099;51.946;4.838;2022-11-12T06:15:31;20.90;;;16.50;;
39370;SDS011;25099;51.946;4.838;2022-11-12T06:17:57;26.52;;;18.10;;
39370;SDS011;25099;51.946;4.838;2022-11-12T06:20:22;22.67;;;17.30;;
39370;SDS011;25099;51.946;4.838;2022-11-12T06:22:48;25.10;;;18.63;;
39370;SDS011;25099;51.946;4.838;2022-11-12T06:25:14;27.73;;;19.02;;
39370;SDS011;25099;51.946;4.838;2022-11-12T06:27:46;26.00;;;18.52;;
39370;SDS011;25099;51.946;4.838;2022-11-12T06:30:11;26.83;;;17.33;;
39370;SDS011;25099;51.946;4.838;2022-11-12T06:32:37;26.33;;;17.50;;
39370;SDS011;25099;51.946;4.838;2022-11-12T06:35:03;25.50;;;16.92;;
39370;SDS011;25099;51.946;4.838;2022-11-12T06:37:29;26.08;;;17.33;;
39370;SDS011;25099;51.946;4.838;2022-11-12T06:39:55;23.10;;;17.20;;
39370;SDS011;25099;51.946;4.838;2022-11-12T06:42:21;26.23;;;18.52;;
39370;SDS011;25099;51.946;4.838;2022-11-12T06:44:47;26.98;;;18.05;;
39370;SDS011;25099;51.946;4.838;2022-11-12T06:47:12;26.17;;;18.55;;
39370;SDS011;25099;51.946;4.838;2022-11-12T06:49:38;28.80;;;19.35;;
39370;SDS011;25099;51.946;4.838;2022-11-12T06:52:03;27.33;;;18.27;;
39370;SDS011;25099;51.946;4.838;2022-11-12T06:54:29;28.63;;;19.63;;
39370;SDS011;25099;51.946;4.838;2022-11-12T06:56:55;33.25;;;21.42;;
39370;SDS011;25099;51.946;4.838;2022-11-12T06:59:20;31.25;;;20.35;;
39370;SDS011;25099;51.946;4.838;2022-11-12T07:01:46;29.45;;;19.35;;
39370;SDS011;25099;51.946;4.838;2022-11-12T07:04:11;29.58;;;19.15;;
39370;SDS011;25099;51.946;4.838;2022-11-12T07:06:37;28.55;;;17.98;;
39370;SDS011;25099;51.946;4.838;2022-11-12T07:09:03;27.20;;;18.50;;
39370;SDS011;25099;51.946;4.838;2022-11-12T07:11:29;24.25;;;18.35;;
39370;SDS011;25099;51.946;4.838;2022-11-12T07:13:54;30.75;;;20.85;;
39370;SDS011;25099;51.946;4.838;2022-11-12T07:16:20;33.45;;;20.67;;
39370;SDS011;25099;51.946;4.838;2022-11-12T07:18:46;27.88;;;18.85;;
39370;SDS011;25099;51.946;4.838;2022-11-12T07:21:14;24.58;;;18.15;;
39370;SDS011;25099;51.946;4.838;2022-11-12T07:23:42;25.63;;;18.35;;
39370;SDS011;25099;51.946;4.838;2022-11-12T07:26:15;26.05;;;18.38;;
39370;SDS011;25099;51.946;4.838;2022-11-12T07:28:43;30.10;;;19.58;;
39370;SDS011;25099;51.946;4.838;2022-11-12T07:31:10;34.33;;;21.35;;
39370;SDS011;25099;51.946;4.838;2022-11-12T07:33:37;33.95;;;19.52;;
39370;SDS011;25099;51.946;4.838;2022-11-12T07:36:04;29.80;;;20.75;;
39370;SDS011;25099;51.946;4.838;2022-11-12T07:38:35;32.35;;;21.13;;
39370;SDS011;25099;51.946;4.838;2022-11-12T07:41:02;31.27;;;19.85;;
39370;SDS011;25099;51.946;4.838;2022-11-12T07:43:36;31.13;;;20.15;;
39370;SDS011;25099;51.946;4.838;2022-11-12T07:46:07;32.30;;;21.02;;
39370;SDS011;25099;51.946;4.838;2022-11-12T07:48:40;28.55;;;21.25;;
39370;SDS011;25099;51.946;4.838;2022-11-12T07:51:08;30.65;;;22.05;;
39370;SDS011;25099;51.946;4.838;2022-11-12T07:53:37;33.65;;;21.67;;
39370;SDS011;25099;51.946;4.838;2022-11-12T07:56:13;33.70;;;23.38;;
39370;SDS011;25099;51.946;4.838;2022-11-12T07:58:43;31.77;;;22.02;;
39370;SDS011;25099;51.946;4.838;2022-11-12T08:01:31;33.13;;;22.27;;
39370;SDS011;25099;51.946;4.838;2022-11-12T08:03:55;38.40;;;24.15;;
39370;SDS011;25099;51.946;4.838;2022-11-12T08:06:21;34.72;;;24.02;;
39370;SDS011;25099;51.946;4.838;2022-11-12T08:08:50;34.67;;;24.05;;
39370;SDS011;25099;51.946;4.838;2022-11-12T08:11:16;29.75;;;21.98;;
39370;SDS011;25099;51.946;4.838;2022-11-12T08:13:42;32.42;;;22.63;;
39370;SDS011;25099;51.946;4.838;2022-11-12T08:16:08;29.60;;;21.95;;
39370;SDS011;25099;51.946;4.838;2022-11-12T08:18:33;34.92;;;23.08;;
39370;SDS011;25099;51.946;4.838;2022-11-12T08:21:03;35.85;;;25.15;;
39370;SDS011;25099;51.946;4.838;2022-11-12T08:23:30;37.10;;;24.60;;
39370;SDS011;25099;51.946;4.838;2022-11-12T08:26:00;33.50;;;23.17;;
39370;SDS011;25099;51.946;4.838;2022-11-12T08:28:27;31.90;;;22.88;;
39370;SDS011;25099;51.946;4.838;2022-11-12T08:30:53;32.47;;;21.92;;
39370;SDS011;25099;51.946;4.838;2022-11-12T08:33:22;31.75;;;22.88;;
39370;SDS011;25099;51.946;4.838;2022-11-12T08:35:48;33.10;;;23.85;;
39370;SDS011;25099;51.946;4.838;2022-11-12T08:38:14;34.33;;;24.10;;
39370;SDS011;25099;51.946;4.838;2022-11-12T08:40:40;33.03;;;23.90;;
39370;SDS011;25099;51.946;4.838;2022-11-12T08:43:06;28.67;;;21.70;;
39370;SDS011;25099;51.946;4.838;2022-11-12T08:45:34;30.73;;;21.95;;
39370;SDS011;25099;51.946;4.838;2022-11-12T08:48:02;26.55;;;20.55;;
39370;SDS011;25099;51.946;4.838;2022-11-12T08:50:33;32.70;;;23.08;;
39370;SDS011;25099;51.946;4.838;2022-11-12T08:53:03;29.15;;;20.80;;
39370;SDS011;25099;51.946;4.838;2022-11-12T08:55:30;29.20;;;20.85;;
39370;SDS011;25099;51.946;4.838;2022-11-12T08:57:57;27.20;;;20.65;;
39370;SDS011;25099;51.946;4.838;2022-11-12T09:00:36;27.52;;;20.85;;
39370;SDS011;25099;51.946;4.838;2022-11-12T09:03:05;28.27;;;20.73;;
39370;SDS011;25099;51.946;4.838;2022-11-12T09:05:33;28.15;;;19.38;;
39370;SDS011;25099;51.946;4.838;2022-11-12T09:08:00;27.38;;;18.80;;
39370;SDS011;25099;51.946;4.838;2022-11-12T09:10:27;28.60;;;18.60;;
39370;SDS011;25099;51.946;4.838;2022-11-12T09:12:53;24.48;;;18.10;;
39370;SDS011;25099;51.946;4.838;2022-11-12T09:15:19;24.95;;;19.33;;
39370;SDS011;25099;51.946;4.838;2022-11-12T09:17:46;27.02;;;19.80;;
39370;SDS011;25099;51.946;4.838;2022-11-12T09:20:11;22.95;;;18.92;;
39370;SDS011;25099;51.946;4.838;2022-11-12T09:22:37;22.60;;;18.17;;
39370;SDS011;25099;51.946;4.838;2022-11-12T09:25:02;22.02;;;16.80;;
39370;SDS011;25099;51.946;4.838;2022-11-12T09:27:28;21.00;;;17.08;;
39370;SDS011;25099;51.946;4.838;2022-11-12T09:29:54;22.05;;;17.52;;
39370;SDS011;25099;51.946;4.838;2022-11-12T09:32:20;28.85;;;18.92;;
39370;SDS011;25099;51.946;4.838;2022-11-12T09:34:48;26.20;;;19.08;;
39370;SDS011;25099;51.946;4.838;2022-11-12T09:37:14;19.70;;;16.98;;
39370;SDS011;25099;51.946;4.838;2022-11-12T09:39:40;23.75;;;18.05;;
39370;SDS011;25099;51.946;4.838;2022-11-12T09:42:06;23.17;;;17.23;;
39370;SDS011;25099;51.946;4.838;2022-11-12T09:44:34;23.83;;;16.80;;
39370;SDS011;25099;51.946;4.838;2022-11-12T09:47:06;24.27;;;18.37;;
39370;SDS011;25099;51.946;4.838;2022-11-12T09:49:48;26.70;;;18.67;;
39370;SDS011;25099;51.946;4.838;2022-11-12T09:52:36;24.20;;;18.60;;
39370;SDS011;25099;51.946;4.838;2022-11-12T09:57:36;25.35;;;19.48;;
39370;SDS011;25099;51.946;4.838;2022-11-12T10:02:44;26.07;;;20.93;;
39370;SDS011;25099;51.946;4.838;2022-11-12T10:05:41;24.75;;;19.33;;
39370;SDS011;25099;51.946;4.838;2022-11-12T10:11:23;20.35;;;17.38;;
39370;SDS011;25099;51.946;4.838;2022-11-12T10:16:46;21.77;;;16.05;;
39370;SDS011;25099;51.946;4.838;2022-11-12T10:19:31;19.45;;;16.70;;
39370;SDS011;25099;51.946;4.838;2022-11-12T10:25:09;21.63;;;16.85;;
39370;SDS011;25099;51.946;4.838;2022-11-12T10:27:43;21.85;;;16.83;;
39370;SDS011;25099;51.946;4.838;2022-11-12T10:30:14;21.00;;;15.27;;
39370;SDS011;25099;51.946;4.838;2022-11-12T10:32:43;18.08;;;15.57;;
39370;SDS011;25099;51.946;4.838;2022-11-12T10:35:12;21.60;;;15.57;;
39370;SDS011;25099;51.946;4.838;2022-11-12T10:42:56;23.65;;;16.95;;
39370;SDS011;25099;51.946;4.838;2022-11-12T10:45:22;21.27;;;15.85;;
39370;SDS011;25099;51.946;4.838;2022-11-12T10:47:47;15.95;;;14.35;;
39370;SDS011;25099;51.946;4.838;2022-11-12T10:50:56;15.38;;;13.75;;
39370;SDS011;25099;51.946;4.838;2022-11-12T10:53:08;17.65;;;15.48;;
39370;SDS011;25099;51.946;4.838;2022-11-12T10:55:36;17.13;;;13.00;;
39370;SDS011;25099;51.946;4.838;2022-11-12T10:58:17;15.15;;;13.13;;
39370;SDS011;25099;51.946;4.838;2022-11-12T11:00:54;14.82;;;12.68;;
39370;SDS011;25099;51.946;4.838;2022-11-12T11:08:33;13.65;;;12.25;;
39370;SDS011;25099;51.946;4.838;2022-11-12T11:13:46;15.05;;;12.35;;
39370;SDS011;25099;51.946;4.838;2022-11-12T11:16:14;15.27;;;11.95;;
39370;SDS011;25099;51.946;4.838;2022-11-12T11:18:44;14.23;;;10.50;;
39370;SDS011;25099;51.946;4.838;2022-11-12T11:24:01;12.18;;;10.93;;
39370;SDS011;25099;51.946;4.838;2022-11-12T11:26:31;11.25;;;10.10;;
39370;SDS011;25099;51.946;4.838;2022-11-12T11:29:28;11.10;;;9.27;;
39370;SDS011;25099;51.946;4.838;2022-11-12T11:37:23;10.27;;;9.25;;
39370;SDS011;25099;51.946;4.838;2022-11-12T11:43:26;10.77;;;9.57;;
39370;SDS011;25099;51.946;4.838;2022-11-12T11:46:16;11.45;;;8.73;;
39370;SDS011;25099;51.946;4.838;2022-11-12T11:51:52;9.57;;;8.60;;
39370;SDS011;25099;51.946;4.838;2022-11-12T11:54:32;8.88;;;8.05;;
39370;SDS011;25099;51.946;4.838;2022-11-12T11:57:22;8.65;;;7.95;;
39370;SDS011;25099;51.946;4.838;2022-11-12T12:00:00;8.90;;;8.07;;
39370;SDS011;25099;51.946;4.838;2022-11-12T12:15:42;6.85;;;6.22;;
39370;SDS011;25099;51.946;4.838;2022-11-12T12:18:22;7.30;;;6.70;;
39370;SDS011;25099;51.946;4.838;2022-11-12T12:21:15;7.68;;;6.50;;
39370;SDS011;25099;51.946;4.838;2022-11-12T12:23:47;6.85;;;5.88;;
39370;SDS011;25099;51.946;4.838;2022-11-12T12:26:38;6.88;;;6.38;;
39370;SDS011;25099;51.946;4.838;2022-11-12T12:29:16;7.90;;;7.20;;
39370;SDS011;25099;51.946;4.838;2022-11-12T12:31:51;6.95;;;6.32;;
39370;SDS011;25099;51.946;4.838;2022-11-12T12:34:44;8.83;;;7.13;;
39370;SDS011;25099;51.946;4.838;2022-11-12T12:42:44;6.78;;;6.07;;
39370;SDS011;25099;51.946;4.838;2022-11-12T12:48:00;6.18;;;5.57;;
39370;SDS011;25099;51.946;4.838;2022-11-12T12:50:29;7.20;;;5.38;;
39370;SDS011;25099;51.946;4.838;2022-11-12T12:53:00;7.47;;;5.45;;
39370;SDS011;25099;51.946;4.838;2022-11-12T12:55:40;6.18;;;5.57;;
39370;SDS011;25099;51.946;4.838;2022-11-12T12:58:14;5.93;;;5.43;;
39370;SDS011;25099;51.946;4.838;2022-11-12T13:00:56;5.70;;;5.20;;
39370;SDS011;25099;51.946;4.838;2022-11-12T13:06:54;6.10;;;5.50;;
39370;SDS011;25099;51.946;4.838;2022-11-12T13:45:39;7.53;;;6.78;;
39370;SDS011;25099;51.946;4.838;2022-11-12T13:48:06;8.00;;;7.25;;
39370;SDS011;25099;51.946;4.838;2022-11-12T13:50:47;7.03;;;6.43;;
39370;SDS011;25099;51.946;4.838;2022-11-12T13:53:21;12.60;;;7.78;;
39370;SDS011;25099;51.946;4.838;2022-11-12T13:55:50;8.50;;;7.80;;
39370;SDS011;25099;51.946;4.838;2022-11-12T13:58:18;10.20;;;8.85;;
39370;SDS011;25099;51.946;4.838;2022-11-12T14:00:56;10.98;;;8.15;;
39370;SDS011;25099;51.946;4.838;2022-11-12T14:03:28;17.02;;;9.90;;
39370;SDS011;25099;51.946;4.838;2022-11-12T14:06:02;9.43;;;8.52;;
39370;SDS011;25099;51.946;4.838;2022-11-12T14:09:00;11.57;;;9.30;;
39370;SDS011;25099;51.946;4.838;2022-11-12T14:11:37;11.55;;;9.15;;
39370;SDS011;25099;51.946;4.838;2022-11-12T14:16:50;10.13;;;8.90;;
39370;SDS011;25099;51.946;4.838;2022-11-12T14:22:23;9.07;;;8.27;;
39370;SDS011;25099;51.946;4.838;2022-11-12T14:24:51;10.88;;;9.75;;
39370;SDS011;25099;51.946;4.838;2022-11-12T14:30:04;9.60;;;8.70;;
39370;SDS011;25099;51.946;4.838;2022-11-12T14:32:40;11.63;;;8.45;;
39370;SDS011;25099;51.946;4.838;2022-11-12T14:38:04;10.07;;;8.55;;
39370;SDS011;25099;51.946;4.838;2022-11-12T14:40:36;11.10;;;9.13;;
39370;SDS011;25099;51.946;4.838;2022-11-12T14:43:16;11.05;;;9.65;;
39370;SDS011;25099;51.946;4.838;2022-11-12T14:45:46;9.98;;;8.90;;
39370;SDS011;25099;51.946;4.838;2022-11-12T14:48:16;9.80;;;8.85;;
39370;SDS011;25099;51.946;4.838;2022-11-12T14:50:42;9.23;;;8.30;;
39370;SDS011;25099;51.946;4.838;2022-11-12T14:53:12;10.73;;;9.00;;
39370;SDS011;25099;51.946;4.838;2022-11-12T14:55:55;11.27;;;10.07;;
39370;SDS011;25099;51.946;4.838;2022-11-12T14:58:22;12.35;;;10.13;;
39370;SDS011;25099;51.946;4.838;2022-11-12T15:00:50;15.70;;;12.52;;
39370;SDS011;25099;51.946;4.838;2022-11-12T15:03:18;12.45;;;11.35;;
39370;SDS011;25099;51.946;4.838;2022-11-12T15:06:06;15.68;;;12.48;;
39370;SDS011;25099;51.946;4.838;2022-11-12T15:08:34;14.32;;;12.25;;
39370;SDS011;25099;51.946;4.838;2022-11-12T15:13:49;14.45;;;12.90;;
39370;SDS011;25099;51.946;4.838;2022-11-12T15:16:18;13.52;;;12.10;;
39370;SDS011;25099;51.946;4.838;2022-11-12T15:21:46;15.25;;;13.68;;
39370;SDS011;25099;51.946;4.838;2022-11-12T15:24:24;17.17;;;15.48;;
39370;SDS011;25099;51.946;4.838;2022-11-12T15:26:58;17.13;;;14.32;;
39370;SDS011;25099;51.946;4.838;2022-11-12T15:29:32;18.90;;;16.02;;
39370;SDS011;25099;51.946;4.838;2022-11-12T15:32:41;15.10;;;12.90;;
39370;SDS011;25099;51.946;4.838;2022-11-12T15:34:47;16.75;;;14.20;;
39370;SDS011;25099;51.946;4.838;2022-11-12T15:39:43;14.43;;;13.10;;
39370;SDS011;25099;51.946;4.838;2022-11-12T15:42:27;15.52;;;13.93;;
39370;SDS011;25099;51.946;4.838;2022-11-12T15:45:01;17.63;;;15.73;;
39370;SDS011;25099;51.946;4.838;2022-11-12T15:47:33;17.63;;;14.00;;
39370;SDS011;25099;51.946;4.838;2022-11-12T15:49:58;15.05;;;13.43;;
39370;SDS011;25099;51.946;4.838;2022-11-12T15:52:24;18.38;;;14.50;;
39370;SDS011;25099;51.946;4.838;2022-11-12T15:54:50;23.20;;;17.40;;
39370;SDS011;25099;51.946;4.838;2022-11-12T15:57:17;19.17;;;14.40;;
39370;SDS011;25099;51.946;4.838;2022-11-12T16:02:23;19.35;;;15.10;;
39370;SDS011;25099;51.946;4.838;2022-11-12T16:04:49;24.98;;;16.08;;
39370;SDS011;25099;51.946;4.838;2022-11-12T16:07:14;21.42;;;17.08;;
39370;SDS011;25099;51.946;4.838;2022-11-12T16:09:40;17.45;;;15.63;;
39370;SDS011;25099;51.946;4.838;2022-11-12T16:12:07;18.42;;;16.52;;
39370;SDS011;25099;51.946;4.838;2022-11-12T16:14:38;20.83;;;17.97;;
39370;SDS011;25099;51.946;4.838;2022-11-12T16:17:11;23.30;;;16.15;;
39370;SDS011;25099;51.946;4.838;2022-11-12T16:19:39;21.75;;;16.85;;
39370;SDS011;25099;51.946;4.838;2022-11-12T16:22:04;19.55;;;16.52;;
39370;SDS011;25099;51.946;4.838;2022-11-12T16:24:36;21.98;;;16.52;;
39370;SDS011;25099;51.946;4.838;2022-11-12T16:27:06;19.87;;;17.33;;
39370;SDS011;25099;51.946;4.838;2022-11-12T16:29:37;21.88;;;17.58;;
39370;SDS011;25099;51.946;4.838;2022-11-12T16:32:02;20.20;;;18.00;;
39370;SDS011;25099;51.946;4.838;2022-11-12T16:34:28;21.73;;;18.38;;
39370;SDS011;25099;51.946;4.838;2022-11-12T16:36:54;24.40;;;18.38;;
39370;SDS011;25099;51.946;4.838;2022-11-12T16:39:20;19.58;;;16.33;;
39370;SDS011;25099;51.946;4.838;2022-11-12T16:41:46;17.98;;;15.55;;
39370;SDS011;25099;51.946;4.838;2022-11-12T16:44:11;17.05;;;15.25;;
39370;SDS011;25099;51.946;4.838;2022-11-12T16:46:37;18.80;;;15.82;;
39370;SDS011;25099;51.946;4.838;2022-11-12T16:49:13;18.27;;;15.38;;
39370;SDS011;25099;51.946;4.838;2022-11-12T16:51:40;19.80;;;16.02;;
39370;SDS011;25099;51.946;4.838;2022-11-12T16:54:06;22.17;;;16.58;;
39370;SDS011;25099;51.946;4.838;2022-11-12T16:56:32;21.05;;;17.55;;